Time;durP1;ratioP1;P1;durP2;ratioP2;P2;SDS_P1;SDS_P2;PMS_P1;PMS_P2;Temp;Humidity;BMP_temperature;BMP_pressure;BME280_temperature;BME280_humidity;BME280_pressure;Samples;Min_cycle;Max_cycle;Signal;HPM_P1;HPM_P2
2022/10/08 00:01:04;;;;;;;25.57;15.35;;;;;;;7.54;82.12;101931.38;1784143;79;20931;-88
2022/10/08 00:03:36;;;;;;;32.17;17.33;;;;;;;7.52;82.14;101923.19;1764653;79;20943;-89
2022/10/08 00:06:30;;;;;;;28.75;18.42;;;;;;;7.48;82.21;101924.55;1732377;80;20954;-88
2022/10/08 00:09:01;;;;;;;28.30;18.10;;;;;;;7.44;82.39;101921.61;1740047;80;21200;-88
2022/10/08 00:11:31;;;;;;;25.02;18.77;;;;;;;7.43;82.59;101921.67;1722505;82;21168;-88
2022/10/08 00:13:58;;;;;;;28.50;17.07;;;;;;;7.41;82.54;101920.40;1722657;82;20927;-87
2022/10/08 00:16:34;;;;;;;28.00;16.77;;;;;;;7.41;82.39;101922.16;1731172;82;21061;-89
2022/10/08 00:19:07;;;;;;;27.37;16.75;;;;;;;7.40;82.32;101921.73;1731294;82;20924;-88
2022/10/08 00:21:36;;;;;;;30.35;18.55;;;;;;;7.38;82.17;101913.08;1728786;82;21154;-89
2022/10/08 00:24:04;;;;;;;28.32;16.05;;;;;;;7.36;82.33;101920.09;1733975;82;21440;-87
2022/10/08 00:26:32;;;;;;;28.98;16.90;;;;;;;7.33;82.26;101920.18;1725900;81;20957;-87
2022/10/08 00:29:03;;;;;;;22.58;15.48;;;;;;;7.30;82.17;101922.42;1724174;82;21058;-87
2022/10/08 00:31:33;;;;;;;32.48;18.67;;;;;;;7.25;82.16;101920.39;1724208;82;21358;-88
2022/10/08 00:34:04;;;;;;;30.77;17.12;;;;;;;7.21;82.14;101919.60;1716557;82;21092;-86
2022/10/08 00:36:33;;;;;;;32.10;16.15;;;;;;;7.19;82.11;101914.86;1717270;82;20987;-88
2022/10/08 00:39:06;;;;;;;32.65;17.15;;;;;;;7.16;82.23;101912.77;1713776;82;20966;-85
2022/10/08 00:41:37;;;;;;;34.43;18.67;;;;;;;7.13;82.37;101910.25;1718028;82;21015;-88
2022/10/08 00:44:58;;;;;;;26.57;17.10;;;;;;;7.11;82.50;101907.67;1722400;82;21003;-88
2022/10/08 00:47:37;;;;;;;27.95;16.55;;;;;;;7.11;82.57;101906.36;1716713;82;21265;-86
2022/10/08 00:50:20;;;;;;;34.48;17.05;;;;;;;7.11;82.69;101896.38;1718440;82;20963;-88
2022/10/08 00:52:54;;;;;;;34.30;18.35;;;;;;;7.11;82.68;101902.91;1718587;82;21413;-87
2022/10/08 00:55:22;;;;;;;29.02;16.20;;;;;;;7.09;82.57;101902.08;1716376;82;21019;-88
2022/10/08 00:57:49;;;;;;;29.95;16.27;;;;;;;7.06;82.64;101897.80;1723811;82;20909;-87
2022/10/08 01:00:18;;;;;;;36.42;17.90;;;;;;;7.03;82.61;101894.83;1716281;82;21083;-87
2022/10/08 01:02:46;;;;;;;39.50;20.35;;;;;;;7.02;82.52;101898.77;1723567;82;20892;-87
2022/10/08 01:05:16;;;;;;;40.58;18.82;;;;;;;6.99;82.52;101898.86;1771170;79;20980;-88
2022/10/08 01:08:08;;;;;;;40.40;20.05;;;;;;;6.96;82.35;101898.48;1774398;79;21070;-88
2022/10/08 01:11:10;;;;;;;32.53;18.55;;;;;;;6.93;82.38;101902.91;1761750;80;20887;-86
2022/10/08 01:13:51;;;;;;;34.48;15.98;;;;;;;6.89;82.48;101902.56;1776480;79;21261;-87
2022/10/08 01:16:45;;;;;;;30.12;17.52;;;;;;;6.84;82.65;101895.70;1739458;81;20873;-88
2022/10/08 01:19:43;;;;;;;25.48;16.32;;;;;;;6.84;82.81;101900.92;1757822;80;21485;-87
2022/10/08 01:22:38;;;;;;;26.75;15.75;;;;;;;6.82;82.80;101900.55;1744325;79;20908;-86
2022/10/08 01:25:34;;;;;;;26.77;14.68;;;;;;;6.80;83.00;101896.70;1742229;80;20944;-89
2022/10/08 01:28:12;;;;;;;23.18;14.43;;;;;;;6.80;82.93;101899.31;1744302;80;21869;-87
2022/10/08 01:30:48;;;;;;;21.82;13.40;;;;;;;6.78;82.72;101898.91;1745462;81;20922;-85
2022/10/08 01:33:30;;;;;;;;;;;;;;;6.78;82.51;101905.42;1743225;79;20947;-87
2022/10/08 01:35:58;;;;;;;27.00;16.07;;;;;;;6.74;82.34;101897.29;1693191;82;20106;-86
2022/10/08 01:38:28;;;;;;;33.25;17.80;;;;;;;6.71;82.26;101906.02;1736573;80;20987;-88
2022/10/08 01:40:57;;;;;;;22.60;15.30;;;;;;;6.69;82.27;101903.03;1753913;80;21243;-86
2022/10/08 01:43:23;;;;;;;25.92;14.43;;;;;;;6.66;82.36;101905.27;1749707;81;20975;-84
2022/10/08 01:45:57;;;;;;;24.92;14.70;;;;;;;6.63;82.49;101905.35;1752318;80;20904;-86
2022/10/08 01:48:29;;;;;;;34.50;18.35;;;;;;;6.60;82.57;101906.70;1744271;79;20944;-84
2022/10/08 01:51:01;;;;;;;38.17;22.73;;;;;;;6.57;82.64;101908.09;1714463;82;21430;-88
2022/10/08 01:53:32;;;;;;;33.30;19.37;;;;;;;6.55;82.80;101909.88;1729909;81;21236;-86
2022/10/08 01:56:01;;;;;;;37.23;21.05;;;;;;;6.53;83.00;101915.11;1743997;80;20885;-88
2022/10/08 01:58:42;;;;;;;30.72;17.32;;;;;;;6.51;83.12;101909.07;1736661;80;20987;-86
2022/10/08 02:01:33;;;;;;;23.92;16.27;;;;;;;6.49;83.07;101912.19;1740661;81;20928;-87
2022/10/08 02:06:49;;;;;;;25.65;12.70;;;;;;;6.48;83.28;101920.03;1749107;80;21180;-87
2022/10/08 02:09:17;;;;;;;26.65;15.63;;;;;;;6.46;83.38;101912.23;1748104;80;20897;-87
2022/10/08 02:11:45;;;;;;;25.52;14.58;;;;;;;6.45;83.44;101918.35;1749859;80;21054;-85
2022/10/08 02:14:12;;;;;;;21.52;12.82;;;;;;;6.43;83.41;101917.53;1740026;81;20936;-87
2022/10/08 02:16:44;;;;;;;16.85;12.05;;;;;;;6.36;83.13;101912.89;1715544;82;21018;-86
2022/10/08 02:19:31;;;;;;;17.90;12.40;;;;;;;6.31;83.32;101912.11;1741768;81;21240;-87
2022/10/08 02:21:57;;;;;;;18.00;12.75;;;;;;;6.28;83.59;101912.64;1718179;82;21414;-87
2022/10/08 02:24:31;;;;;;;19.77;13.48;;;;;;;6.27;83.80;101909.19;1720676;82;21516;-87
2022/10/08 02:27:01;;;;;;;18.57;12.33;;;;;;;6.27;83.89;101906.58;1725748;82;20916;-86
2022/10/08 02:29:32;;;;;;;22.67;12.78;;;;;;;6.29;83.82;101909.13;1710131;82;20981;-87
2022/10/08 02:32:10;;;;;;;22.00;14.68;;;;;;;6.29;83.61;101909.13;1726983;82;21239;-85
2022/10/08 02:34:42;;;;;;;23.38;13.30;;;;;;;6.29;83.40;101906.53;1762931;79;21160;-85
2022/10/08 02:37:22;;;;;;;18.02;13.60;;;;;;;6.28;83.23;101903.52;1760879;79;21029;-85
2022/10/08 02:39:54;;;;;;;19.30;13.78;;;;;;;6.25;83.00;101903.57;1781148;79;20896;-85
2022/10/08 02:42:22;;;;;;;17.77;11.97;;;;;;;6.21;83.14;101900.19;1743503;81;21234;-86
2022/10/08 02:45:00;;;;;;;19.17;12.68;;;;;;;6.19;83.17;101906.73;1759679;80;21280;-87
2022/10/08 02:47:29;;;;;;;18.35;11.97;;;;;;;6.18;83.05;101909.35;1743319;80;20904;-86
2022/10/08 02:50:01;;;;;;;20.05;11.90;;;;;;;6.15;83.02;101907.67;1752557;81;20896;-86
2022/10/08 02:52:35;;;;;;;16.95;12.15;;;;;;;6.14;82.90;101913.78;1728907;81;20975;-87
2022/10/08 02:55:06;;;;;;;17.60;13.85;;;;;;;6.11;82.80;101912.53;1741356;79;21487;-88
2022/10/08 02:57:45;;;;;;;18.82;13.58;;;;;;;6.09;82.80;101907.83;1778934;79;21143;-82
2022/10/08 03:00:13;;;;;;;21.30;13.68;;;;;;;6.08;82.75;101903.49;1782577;80;20946;-86
2022/10/08 03:02:51;;;;;;;21.33;14.78;;;;;;;6.07;82.60;101907.00;1742250;81;21433;-86
2022/10/08 03:05:18;;;;;;;21.52;13.38;;;;;;;6.03;82.56;101905.34;1764539;81;20907;-85
2022/10/08 03:07:45;;;;;;;24.63;15.18;;;;;;;6.03;82.64;101904.49;1748906;81;20936;-85
2022/10/08 03:10:13;;;;;;;20.43;13.65;;;;;;;5.99;82.63;101900.63;1772347;79;21161;-86
2022/10/08 03:12:40;;;;;;;23.30;13.90;;;;;;;5.98;82.61;101908.04;1728236;81;20996;-86
2022/10/08 03:15:10;;;;;;;20.62;14.35;;;;;;;5.94;82.55;101902.89;1751929;80;20860;-85
2022/10/08 03:17:40;;;;;;;23.15;14.87;;;;;;;5.89;82.76;101901.69;1743452;79;21560;-86
2022/10/08 03:20:08;;;;;;;21.68;15.13;;;;;;;5.86;82.92;101896.52;1723008;80;21059;-87
2022/10/08 03:22:37;;;;;;;21.93;14.43;;;;;;;5.84;83.28;101893.09;1741301;80;21350;-88
2022/10/08 03:25:04;;;;;;;23.05;14.85;;;;;;;5.84;83.43;101894.39;1725181;82;20856;-88
2022/10/08 03:27:31;;;;;;;21.70;13.55;;;;;;;5.86;83.32;101896.52;1719077;81;21019;-88
2022/10/08 03:29:57;;;;;;;22.13;13.08;;;;;;;5.86;83.13;101890.47;1721557;82;20872;-88
2022/10/08 03:32:25;;;;;;;15.93;12.25;;;;;;;5.85;83.00;101893.52;1722366;82;21062;-89
2022/10/08 03:34:53;;;;;;;16.48;12.53;;;;;;;5.85;82.79;101896.54;1722725;82;21129;-89
2022/10/08 03:37:20;;;;;;;18.73;13.18;;;;;;;5.83;82.71;101889.23;1776779;79;20879;-87
2022/10/08 03:39:47;;;;;;;20.27;14.25;;;;;;;5.80;82.67;101884.92;1738659;81;21460;-86
2022/10/08 03:42:13;;;;;;;22.85;15.00;;;;;;;5.78;82.64;101887.58;1731167;81;20911;-88
2022/10/08 03:44:40;;;;;;;21.27;15.43;;;;;;;5.75;82.63;101880.26;1702735;82;20935;-89
2022/10/08 03:47:07;;;;;;;20.35;15.65;;;;;;;5.72;82.70;101884.23;1714869;82;21202;-88
2022/10/08 03:49:34;;;;;;;23.47;16.60;;;;;;;5.71;82.81;101886.41;1786902;79;20904;-89
2022/10/08 03:52:00;;;;;;;29.05;17.42;;;;;;;5.69;82.84;101885.58;1736262;81;20951;-88
2022/10/08 03:54:26;;;;;;;23.60;17.80;;;;;;;5.68;82.85;101885.17;1743067;81;21137;-87
2022/10/08 03:56:53;;;;;;;29.67;17.45;;;;;;;5.66;82.89;101883.05;1737626;81;20993;-89
2022/10/08 03:59:20;;;;;;;26.70;17.65;;;;;;;5.65;82.87;101875.69;1738703;81;21298;-89
2022/10/08 04:01:46;;;;;;;24.57;16.60;;;;;;;5.64;82.83;101876.55;1732419;79;20895;-89
2022/10/08 04:04:13;;;;;;;32.48;21.33;;;;;;;5.63;82.81;101874.01;1758800;80;21003;-87
2022/10/08 04:06:39;;;;;;;39.20;25.97;;;;;;;5.63;82.71;101878.77;1746245;80;21013;-87
2022/10/08 04:09:09;;;;;;;36.05;24.15;;;;;;;5.58;82.73;101880.57;1739282;80;20939;-89
2022/10/08 04:11:37;;;;;;;38.88;21.75;;;;;;;5.58;83.13;101882.75;1747039;80;21896;-89
2022/10/08 04:14:04;;;;;;;31.75;19.12;;;;;;;5.60;83.31;101885.30;1733194;82;20916;-88
2022/10/08 04:16:31;;;;;;;35.10;20.60;;;;;;;5.63;83.24;101888.32;1745246;80;21023;-88
2022/10/08 04:18:58;;;;;;;27.55;17.10;;;;;;;5.63;83.40;101876.16;1748596;80;20953;-89
2022/10/08 04:21:25;;;;;;;25.40;17.85;;;;;;;5.66;83.49;101875.23;1749065;81;21417;-88
2022/10/08 04:23:51;;;;;;;33.05;16.12;;;;;;;5.69;83.44;101881.67;1735200;82;21282;-89
2022/10/08 04:26:18;;;;;;;24.95;15.95;;;;;;;5.71;83.25;101882.50;1771913;79;20922;-89
2022/10/08 04:28:46;;;;;;;33.75;18.07;;;;;;;5.74;83.08;101886.36;1738839;80;20913;-89
2022/10/08 04:31:16;;;;;;;40.98;18.73;;;;;;;5.75;82.93;101887.61;1745724;81;20960;-90
2022/10/08 04:33:45;;;;;;;33.33;18.40;;;;;;;5.75;82.96;101885.02;1758233;80;21513;-90
2022/10/08 04:36:18;;;;;;;36.53;18.12;;;;;;;5.76;83.04;101883.30;1748766;80;21141;-87
2022/10/08 04:38:44;;;;;;;34.67;18.45;;;;;;;5.75;83.11;101880.26;1730552;81;21469;-89
2022/10/08 04:41:16;;;;;;;32.03;17.80;;;;;;;5.76;83.28;101876.78;1721930;82;20963;-88
2022/10/08 04:43:45;;;;;;;31.23;17.55;;;;;;;5.80;83.46;101891.01;1727659;82;20944;-88
2022/10/08 04:46:14;;;;;;;34.13;18.48;;;;;;;5.85;83.63;101887.43;1766642;79;21396;-87
2022/10/08 04:48:48;;;;;;;24.65;16.65;;;;;;;5.91;83.68;101895.98;1738974;81;21055;-89
2022/10/08 04:51:14;;;;;;;31.60;18.32;;;;;;;5.98;83.65;101891.53;1752767;80;20900;-89
2022/10/08 04:53:41;;;;;;;38.95;19.32;;;;;;;6.04;83.59;101884.91;1740801;81;20944;-88
2022/10/08 04:56:16;;;;;;;34.27;19.85;;;;;;;6.16;83.76;101890.33;1726250;82;21492;-87
2022/10/08 04:58:44;;;;;;;36.58;20.57;;;;;;;6.32;84.04;101889.09;1781442;79;20931;-88
2022/10/08 05:01:14;;;;;;;36.83;21.42;;;;;;;6.46;83.81;101891.39;1747267;81;21338;-88
2022/10/08 05:03:46;;;;;;;36.48;21.15;;;;;;;6.56;83.55;101890.75;1758115;80;20947;-89
2022/10/08 05:06:15;;;;;;;37.10;21.73;;;;;;;6.66;83.46;101891.39;1742043;80;20917;-88
2022/10/08 05:08:43;;;;;;;41.18;23.95;;;;;;;6.73;83.37;101891.65;1718852;82;21495;-88
2022/10/08 05:11:10;;;;;;;36.15;23.02;;;;;;;6.81;83.25;101889.73;1727142;82;20896;-87
2022/10/08 05:13:42;;;;;;;40.65;25.05;;;;;;;6.92;83.60;101886.87;1748167;79;21901;-89
2022/10/08 05:16:11;;;;;;;40.88;25.82;;;;;;;7.14;84.31;101883.28;1742180;80;20915;-90
2022/10/08 05:18:39;;;;;;;36.08;24.67;;;;;;;7.35;84.15;101889.23;1755539;80;20939;-90
2022/10/08 05:21:08;;;;;;;46.33;26.05;;;;;;;7.56;84.01;101889.55;1717999;82;20931;-88
2022/10/08 05:23:36;;;;;;;45.10;25.25;;;;;;;7.80;84.40;101887.61;1722302;82;20915;-89
2022/10/08 05:26:18;;;;;;;45.23;23.75;;;;;;;8.21;84.42;101890.77;1723461;82;21277;-88
2022/10/08 05:28:46;;;;;;;45.28;21.85;;;;;;;8.80;84.57;101894.22;1726039;80;20999;-88
2022/10/08 05:31:14;;;;;;;33.00;21.02;;;;;;;9.41;83.22;101892.66;1741453;81;21101;-90
2022/10/08 05:33:41;;;;;;;40.38;20.52;;;;;;;9.78;81.31;101881.70;1732343;81;20923;-90
2022/10/08 05:36:11;;;;;;;36.00;21.37;;;;;;;10.23;80.82;101888.78;1733704;81;20853;-90
2022/10/08 05:38:38;;;;;;;37.35;19.62;;;;;;;10.86;79.75;101885.02;1729502;81;21701;-91
2022/10/08 05:41:16;;;;;;;25.45;15.93;;;;;;;11.65;78.54;101897.45;1753412;80;21030;-89
2022/10/08 05:43:43;;;;;;;38.95;16.70;;;;;;;12.49;77.53;101894.94;1762649;80;20987;-89
2022/10/08 05:46:10;;;;;;;29.48;14.65;;;;;;;13.42;74.73;101887.32;1769335;80;21464;-88
2022/10/08 05:48:36;;;;;;;20.88;12.07;;;;;;;14.26;71.98;101892.52;1768921;79;21459;-90
2022/10/08 05:51:15;;;;;;;34.25;13.43;;;;;;;15.13;69.35;101902.57;1780821;80;21130;-89
2022/10/08 05:53:45;;;;;;;18.15;11.48;;;;;;;16.01;66.74;101895.98;1732759;81;21026;-90
2022/10/08 05:56:16;;;;;;;16.90;12.15;;;;;;;16.96;63.46;101905.33;1738545;80;20889;-89
2022/10/08 05:58:43;;;;;;;16.70;10.65;;;;;;;17.83;60.67;101900.80;1744573;79;20986;-89
2022/10/08 06:01:23;;;;;;;14.10;9.40;;;;;;;18.56;56.44;101895.50;1735818;81;21054;-90
2022/10/08 06:03:54;;;;;;;20.12;9.90;;;;;;;19.16;55.34;101899.53;1736374;82;21163;-89
2022/10/08 06:06:20;;;;;;;15.03;9.95;;;;;;;19.78;53.54;101893.01;1737190;80;21417;-89
2022/10/08 06:08:46;;;;;;;14.03;9.28;;;;;;;20.29;51.93;101893.31;1732095;82;20897;-90
2022/10/08 06:11:13;;;;;;;15.40;9.13;;;;;;;20.76;50.75;101897.09;1736744;80;20908;-90
2022/10/08 06:13:41;;;;;;;11.50;8.73;;;;;;;21.20;49.60;101898.34;1744690;81;20994;-90
2022/10/08 06:16:09;;;;;;;14.25;9.05;;;;;;;21.62;48.23;101886.33;1740008;80;21150;-89
2022/10/08 06:18:40;;;;;;;13.28;7.90;;;;;;;22.05;46.83;101894.58;1752891;79;20907;-88
2022/10/08 06:21:12;;;;;;;15.95;8.18;;;;;;;22.40;45.83;101889.28;1704352;82;20886;-88
2022/10/08 06:23:39;;;;;;;10.93;7.47;;;;;;;22.71;44.96;101889.52;1744786;81;20995;-86
2022/10/08 06:26:08;;;;;;;14.00;7.25;;;;;;;23.07;44.13;101884.45;1762298;81;21026;-86
2022/10/08 06:28:36;;;;;;;11.18;7.62;;;;;;;23.45;43.61;101884.52;1743790;81;21138;-90
2022/10/08 06:31:05;;;;;;;12.50;7.95;;;;;;;23.59;42.58;101883.56;1713001;82;20942;-92
2022/10/08 06:33:32;;;;;;;10.18;9.28;;;;;;;23.44;42.05;101878.33;1706939;83;20987;-91
2022/10/08 06:36:22;;;;;;;13.22;8.23;;;;;;;23.22;42.24;101884.02;1722477;82;20915;-89
2022/10/08 06:38:50;;;;;;;9.68;7.72;;;;;;;23.11;42.44;101875.16;1708893;82;20939;-89
2022/10/08 06:41:17;;;;;;;9.75;7.60;;;;;;;22.87;42.60;101880.92;1718322;82;21162;-91
2022/10/08 06:43:44;;;;;;;8.68;7.33;;;;;;;22.41;42.74;101872.25;1722326;82;20911;-90
2022/10/08 06:46:11;;;;;;;9.98;7.53;;;;;;;21.91;43.56;101877.94;1710159;82;20947;-89
2022/10/08 06:48:38;;;;;;;8.93;7.30;;;;;;;21.42;44.31;101874.22;1726763;82;20900;-89
2022/10/08 06:51:14;;;;;;;11.88;7.42;;;;;;;20.88;45.09;101866.75;1772450;79;20911;-89
2022/10/08 06:53:41;;;;;;;10.23;7.50;;;;;;;20.40;45.98;101875.13;1766251;80;21241;-90
2022/10/08 06:56:16;;;;;;;8.45;7.22;;;;;;;19.88;47.13;101870.87;1766728;80;21092;-91
2022/10/08 06:58:43;;;;;;;8.30;6.70;;;;;;;19.57;48.11;101871.57;1774071;79;20895;-90
2022/10/08 07:01:16;;;;;;;11.30;6.30;;;;;;;19.64;48.41;101864.79;1777208;80;20938;-90
2022/10/08 07:03:49;;;;;;;13.98;7.80;;;;;;;20.01;47.91;101863.21;1777261;79;21548;-89
2022/10/08 07:06:17;;;;;;;10.85;7.50;;;;;;;20.54;47.49;101863.82;1777476;79;21145;-90
2022/10/08 07:08:44;;;;;;;10.35;7.22;;;;;;;21.22;46.38;101858.55;1775201;79;21052;-88
2022/10/08 07:11:16;;;;;;;9.60;7.60;;;;;;;21.87;45.38;101853.81;1772876;80;21389;-90
2022/10/08 07:13:43;;;;;;;8.78;7.40;;;;;;;22.53;44.19;101851.94;1775756;80;20974;-89
2022/10/08 07:16:16;;;;;;;12.25;7.47;;;;;;;23.17;42.92;101843.81;1776712;79;20880;-89
2022/10/08 07:18:45;;;;;;;11.12;7.78;;;;;;;23.74;41.62;101842.39;1769338;79;21156;-90
2022/10/08 07:21:13;;;;;;;11.25;7.37;;;;;;;24.29;40.88;101848.74;1777197;78;21010;-87
2022/10/08 07:23:40;;;;;;;15.53;8.48;;;;;;;24.74;40.03;101848.67;1762214;79;20883;-87
2022/10/08 07:26:12;;;;;;;13.78;8.40;;;;;;;25.14;39.22;101839.23;1769419;79;20851;-86
2022/10/08 07:28:42;;;;;;;12.33;7.80;;;;;;;25.57;38.40;101840.70;1772871;79;20955;-87
2022/10/08 07:31:16;;;;;;;11.83;7.90;;;;;;;26.03;37.72;101850.16;1766422;79;21317;-89
2022/10/08 07:33:43;;;;;;;10.53;8.20;;;;;;;26.37;37.18;101845.17;1771894;79;20977;-89
2022/10/08 07:36:12;;;;;;;12.63;7.92;;;;;;;26.70;36.25;101843.02;1763968;80;20886;-88
2022/10/08 07:38:39;;;;;;;19.75;11.00;;;;;;;27.03;35.35;101841.98;1781403;79;21065;-86
2022/10/08 07:41:07;;;;;;;9.80;8.13;;;;;;;27.40;34.71;101847.84;1736954;80;21003;-90
2022/10/08 07:43:35;;;;;;;15.98;7.72;;;;;;;27.67;34.12;101846.56;1736594;81;22348;-88
2022/10/08 07:46:52;;;;;;;9.18;6.08;;;;;;;28.00;33.73;101839.18;1800199;79;22617;-86
2022/10/08 07:49:21;;;;;;;10.30;5.87;;;;;;;28.14;33.66;101844.31;1697440;83;20955;-86
2022/10/08 07:51:48;;;;;;;11.70;6.17;;;;;;;28.39;33.51;101839.62;1696666;84;21098;-89
2022/10/08 07:54:17;;;;;;;13.45;5.35;;;;;;;28.64;32.90;101835.41;1696793;83;20935;-87
2022/10/08 07:56:44;;;;;;;8.00;6.20;;;;;;;28.92;32.41;101831.06;1698917;84;20963;-86
2022/10/08 07:59:13;;;;;;;7.97;5.97;;;;;;;29.14;31.95;101833.41;1697275;83;20978;-87
2022/10/08 08:01:40;;;;;;;9.68;6.37;;;;;;;29.34;31.64;101822.88;1696751;84;20904;-88
2022/10/08 08:04:08;;;;;;;7.70;6.40;;;;;;;29.51;30.79;101822.70;1696361;84;21160;-88
2022/10/08 08:06:41;;;;;;;8.95;6.83;;;;;;;29.67;30.63;101817.07;1695774;84;20947;-87
2022/10/08 08:09:08;;;;;;;11.80;5.95;;;;;;;29.81;30.72;101814.03;1695993;84;21022;-86
2022/10/08 08:11:35;;;;;;;8.53;6.08;;;;;;;29.96;30.37;101809.95;1695777;84;20942;-87
2022/10/08 08:14:03;;;;;;;9.48;6.08;;;;;;;30.07;30.25;101809.45;1695984;84;21076;-88
2022/10/08 08:16:30;;;;;;;9.08;6.67;;;;;;;30.15;30.46;101802.56;1695970;84;21169;-87
2022/10/08 08:18:59;;;;;;;8.68;6.00;;;;;;;30.37;29.71;101803.92;1695998;84;20907;-86
2022/10/08 08:21:32;;;;;;;13.28;6.85;;;;;;;30.45;29.65;101801.61;1696030;83;20998;-87
2022/10/08 08:24:09;;;;;;;10.05;6.12;;;;;;;30.45;29.78;101795.67;1696119;84;24968;-88
2022/10/08 08:26:39;;;;;;;12.28;5.65;;;;;;;30.56;29.63;101797.02;1695955;84;21053;-89
2022/10/08 08:29:15;;;;;;;7.20;5.15;;;;;;;30.51;29.25;101801.67;1695958;84;21119;-88
2022/10/08 08:31:43;;;;;;;8.45;5.65;;;;;;;30.48;29.22;101795.30;1695703;84;20934;-89
2022/10/08 08:34:13;;;;;;;10.30;6.87;;;;;;;30.60;29.59;101796.95;1695800;84;20911;-88
2022/10/08 08:36:43;;;;;;;12.07;7.28;;;;;;;30.73;28.85;101790.28;1695870;84;20943;-88
2022/10/08 08:39:17;;;;;;;7.17;5.95;;;;;;;30.81;29.31;101791.16;1696078;83;21471;-86
2022/10/08 08:42:12;;;;;;;10.00;5.90;;;;;;;30.83;28.66;101786.39;1695835;84;21153;-88
2022/10/08 08:44:42;;;;;;;5.97;4.92;;;;;;;30.74;29.15;101789.77;1695084;84;20963;-88
2022/10/08 08:47:31;;;;;;;7.60;6.55;;;;;;;30.60;29.22;101790.19;1693101;83;22676;-88
2022/10/08 08:50:03;;;;;;;9.95;5.55;;;;;;;30.61;29.12;101789.14;1693627;84;21053;-88
2022/10/08 08:52:33;;;;;;;10.72;5.90;;;;;;;30.73;29.23;101775.91;1693914;83;20939;-89
2022/10/08 08:55:00;;;;;;;8.58;5.37;;;;;;;30.94;29.18;101766.90;1694419;84;21153;-86
2022/10/08 08:57:41;;;;;;;9.33;4.05;;;;;;;31.18;29.22;101770.48;1693618;84;20891;-89
2022/10/08 09:00:15;;;;;;;6.28;4.17;;;;;;;31.24;28.72;101762.56;1693138;84;20895;-86
2022/10/08 09:03:07;;;;;;;4.35;3.95;;;;;;;31.32;28.35;101763.23;1692895;83;20903;-87
2022/10/08 09:05:41;;;;;;;4.55;4.10;;;;;;;31.42;28.44;101764.80;1692775;83;20895;-85
2022/10/08 09:08:31;;;;;;;8.88;4.03;;;;;;;31.52;28.17;101753.02;1669385;84;21151;-90
2022/10/08 09:11:01;;;;;;;7.40;4.62;;;;;;;31.60;28.11;101760.46;1693440;84;20923;-87
2022/10/08 09:13:39;;;;;;;8.98;4.75;;;;;;;31.65;28.42;101752.23;1692920;84;21461;-88
2022/10/08 09:16:05;;;;;;;8.18;4.80;;;;;;;31.68;28.07;101752.64;1692252;84;21388;-88
2022/10/08 09:18:33;;;;;;;6.97;4.80;;;;;;;31.90;27.74;101751.14;1693123;84;21317;-89
2022/10/08 09:21:00;;;;;;;10.35;4.75;;;;;;;32.05;27.62;101749.63;1693237;84;21215;-88
2022/10/08 09:23:26;;;;;;;5.80;4.05;;;;;;;32.16;27.49;101751.73;1694340;84;20896;-87
2022/10/08 09:26:04;;;;;;;4.50;4.10;;;;;;;32.26;27.63;101745.37;1695320;84;20899;-87
2022/10/08 09:28:45;;;;;;;4.90;4.12;;;;;;;32.41;27.40;101745.97;1680372;84;21002;-87
2022/10/08 09:31:31;;;;;;;5.75;3.47;;;;;;;32.55;26.58;101736.48;1693363;84;21048;-87
2022/10/08 09:34:15;;;;;;;4.58;4.17;;;;;;;32.65;26.75;101736.07;1682931;84;21778;-88
2022/10/08 09:36:52;;;;;;;4.03;3.60;;;;;;;32.78;26.33;101717.85;1693077;84;21473;-86
2022/10/08 09:39:27;;;;;;;4.65;3.80;;;;;;;32.92;26.39;101720.53;1693028;83;20983;-87
2022/10/08 09:42:13;;;;;;;4.10;3.70;;;;;;;32.96;26.13;101717.17;1693008;84;20911;-87
2022/10/08 09:44:44;;;;;;;5.15;4.47;;;;;;;32.94;26.17;101708.92;1693033;83;21472;-89
2022/10/08 09:47:17;;;;;;;4.08;3.72;;;;;;;32.90;25.73;101706.32;1682419;84;22073;-88
2022/10/08 09:49:48;;;;;;;5.67;3.85;;;;;;;32.83;25.93;101694.94;1744950;81;20910;-89
2022/10/08 09:52:24;;;;;;;4.75;3.75;;;;;;;32.93;25.88;101688.22;1744676;81;21373;-90
2022/10/08 09:55:00;;;;;;;6.53;3.67;;;;;;;32.96;25.64;101695.95;1744851;81;21066;-88
2022/10/08 09:57:26;;;;;;;4.47;3.72;;;;;;;32.94;25.96;101692.09;1744987;81;20952;-87
2022/10/08 09:59:58;;;;;;;5.70;3.62;;;;;;;33.03;25.75;101688.08;1745870;81;21149;-86
2022/10/08 10:02:36;;;;;;;6.62;4.35;;;;;;;33.14;25.22;101681.70;1745727;82;20924;-87
2022/10/08 10:05:09;;;;;;;4.62;3.42;;;;;;;33.26;24.62;101684.02;1745252;81;21011;-87
2022/10/08 10:07:43;;;;;;;5.55;2.77;;;;;;;33.17;24.75;101674.45;1732342;82;20936;-88
2022/10/08 10:10:35;;;;;;;4.75;2.58;;;;;;;33.04;24.54;101678.06;1744974;81;20940;-86
2022/10/08 10:13:17;;;;;;;3.90;3.50;;;;;;;32.81;24.69;101673.94;1738248;81;21421;-87
2022/10/08 10:16:15;;;;;;;4.50;2.70;;;;;;;32.70;24.97;101665.62;1745036;81;21450;-85
2022/10/08 10:19:08;;;;;;;5.65;2.87;;;;;;;32.80;24.54;101668.74;1744927;80;20929;-87
2022/10/08 10:21:43;;;;;;;6.05;2.50;;;;;;;32.67;24.68;101666.89;1744803;81;20897;-86
2022/10/08 10:24:31;;;;;;;5.40;2.98;;;;;;;32.61;24.76;101668.56;1744905;80;20869;-88
2022/10/08 10:27:12;;;;;;;5.85;2.20;;;;;;;32.63;24.48;101662.40;1745178;81;21227;-88
2022/10/08 10:29:53;;;;;;;3.30;2.30;;;;;;;32.63;23.68;101654.25;1737610;81;21007;-87
2022/10/08 10:32:24;;;;;;;3.22;1.92;;;;;;;32.58;23.90;101643.73;1754768;80;20927;-89
2022/10/08 10:35:17;;;;;;;2.62;2.42;;;;;;;32.60;24.41;101638.39;1781171;80;20897;-88
2022/10/08 10:37:51;;;;;;;2.87;2.17;;;;;;;32.66;23.82;101629.06;1781028;80;21570;-89
2022/10/08 10:40:44;;;;;;;4.17;2.77;;;;;;;32.67;24.38;101632.94;1781056;80;21145;-86
2022/10/08 10:43:22;;;;;;;5.80;2.52;;;;;;;32.72;24.11;101621.42;1782335;80;20872;-88
2022/10/08 10:45:56;;;;;;;4.72;4.25;;;;;;;32.41;24.35;101611.55;1781839;80;21018;-87
2022/10/08 10:48:23;;;;;;;4.50;2.75;;;;;;;32.04;25.01;101617.19;1786971;80;20911;-87
2022/10/08 10:51:06;;;;;;;6.87;3.12;;;;;;;31.72;25.23;101610.15;1786771;80;21012;-88
2022/10/08 10:53:36;;;;;;;;;;;;;;;31.39;25.20;101603.30;1787891;79;21377;-88
2022/10/08 10:56:16;;;;;;;5.15;2.67;;;;;;;31.05;25.55;101601.58;1785866;80;20082;-88
2022/10/08 10:59:19;;;;;;;4.72;3.00;;;;;;;30.71;25.70;101593.82;1786866;80;20930;-88
2022/10/08 11:01:57;;;;;;;3.60;3.30;;;;;;;30.33;26.37;101589.67;1787120;80;20896;-88
2022/10/08 11:04:31;;;;;;;5.08;3.10;;;;;;;29.88;26.89;101583.72;1786687;80;20892;-89
2022/10/08 11:07:15;;;;;;;4.65;3.25;;;;;;;29.49;27.20;101574.20;1785926;80;21843;-90
2022/10/08 11:10:29;;;;;;;5.60;3.15;;;;;;;29.25;27.31;101579.99;1740860;80;21472;-88
2022/10/08 11:13:16;;;;;;;;;;;;;;;29.04;26.90;101578.91;1789591;79;20876;-88
2022/10/08 11:16:16;;;;;;;4.80;2.60;;;;;;;28.44;27.22;101563.81;1786662;80;20367;-88
2022/10/08 11:18:56;;;;;;;6.03;2.87;;;;;;;27.90;27.47;101561.69;1786934;80;20876;-91
2022/10/08 11:21:35;;;;;;;4.62;3.05;;;;;;;27.40;28.30;101560.91;1788361;79;21149;-87
2022/10/08 11:24:33;;;;;;;2.42;2.22;;;;;;;26.96;29.05;101562.84;1787536;80;20983;-84
2022/10/08 11:27:23;;;;;;;5.12;2.58;;;;;;;26.53;29.34;101554.28;1787362;80;20848;-85
2022/10/08 11:30:13;;;;;;;4.53;2.87;;;;;;;26.02;30.27;101547.36;1786449;80;20899;-88
2022/10/08 11:32:41;;;;;;;2.33;2.12;;;;;;;25.56;30.31;101545.69;1786285;80;21401;-88
2022/10/08 11:35:16;;;;;;;2.85;2.55;;;;;;;25.12;30.60;101539.74;1787307;80;21166;-88
2022/10/08 11:37:52;;;;;;;5.47;2.70;;;;;;;24.73;30.77;101542.50;1786544;80;20843;-88
2022/10/08 11:40:36;;;;;;;3.70;2.75;;;;;;;24.38;31.33;101536.79;1786847;80;21030;-88
2022/10/08 11:43:15;;;;;;;4.83;2.80;;;;;;;24.08;31.55;101536.30;1786672;80;20876;-88
2022/10/08 11:45:48;;;;;;;3.52;2.95;;;;;;;23.84;32.50;101534.30;1786717;80;21522;-87
2022/10/08 11:48:33;;;;;;;4.60;2.83;;;;;;;23.62;32.73;101523.55;1786982;80;21162;-88
2022/10/08 11:51:24;;;;;;;4.42;3.20;;;;;;;23.33;33.06;101516.62;1786604;80;20959;-87